Time;durP1;ratioP1;P1;durP2;ratioP2;P2;SDS_P1;SDS_P2;PMS_P1;PMS_P2;Temp;Humidity;BMP_temperature;BMP_pressure;BME280_temperature;BME280_humidity;BME280_pressure;Samples;Min_cycle;Max_cycle;Signal;HPM_P1;HPM_P2
2022/01/03 00:00:59;;;;;;;4.45;2.72;;;;;;;1.23;100.00;97219.06;5174805;27;20080;-61
2022/01/03 00:03:25;;;;;;;4.20;3.05;;;;;;;1.31;100.00;97212.69;5174368;27;20141;-61
2022/01/03 00:05:52;;;;;;;4.18;2.92;;;;;;;1.26;100.00;97206.78;5174741;27;20544;-61
2022/01/03 00:08:20;;;;;;;4.15;2.88;;;;;;;1.28;100.00;97199.91;5174750;27;20050;-61
2022/01/03 00:10:47;;;;;;;3.42;2.80;;;;;;;1.28;100.00;97191.03;5174530;27;20049;-61
2022/01/03 00:13:14;;;;;;;3.75;2.78;;;;;;;1.29;100.00;97193.34;5174114;27;20515;-60
2022/01/03 00:15:40;;;;;;;3.20;2.70;;;;;;;1.25;100.00;97189.81;5174285;27;20050;-61
2022/01/03 00:18:07;;;;;;;4.35;2.92;;;;;;;1.28;100.00;97186.41;5174303;27;20043;-61
2022/01/03 00:20:33;;;;;;;3.00;2.30;;;;;;;1.21;100.00;97182.78;5174619;27;20572;-61
2022/01/03 00:23:02;;;;;;;4.78;3.05;;;;;;;1.27;100.00;97171.34;5174732;27;20046;-61
2022/01/03 00:25:30;;;;;;;6.65;3.35;;;;;;;1.36;100.00;97163.03;5174385;27;20515;-61
2022/01/03 00:28:02;;;;;;;4.53;3.20;;;;;;;1.35;100.00;97158.78;5174440;27;20049;-61
2022/01/03 00:30:32;;;;;;;6.25;3.70;;;;;;;1.38;100.00;97158.84;5174168;27;20046;-61
2022/01/03 00:32:59;;;;;;;3.33;3.03;;;;;;;1.44;100.00;97150.50;5174079;27;20155;-61
2022/01/03 00:35:25;;;;;;;3.20;2.75;;;;;;;1.47;100.00;97163.28;5173991;27;20528;-61
2022/01/03 00:37:51;;;;;;;3.78;2.80;;;;;;;1.51;100.00;97147.94;5174278;27;20520;-61
2022/01/03 00:40:20;;;;;;;3.97;3.15;;;;;;;1.50;100.00;97138.25;5173910;27;20047;-61
2022/01/03 00:42:47;;;;;;;2.88;2.65;;;;;;;1.50;100.00;97140.94;5173829;27;20565;-61
2022/01/03 00:45:13;;;;;;;3.95;2.65;;;;;;;1.47;100.00;97133.59;5173810;27;20145;-60
2022/01/03 00:47:40;;;;;;;4.50;2.90;;;;;;;1.49;100.00;97132.06;5173887;27;20129;-61
2022/01/03 00:50:08;;;;;;;4.53;3.10;;;;;;;1.53;100.00;97132.91;5173940;27;20524;-61
2022/01/03 00:52:35;;;;;;;4.50;3.30;;;;;;;1.57;100.00;97122.22;5173665;27;20062;-61
2022/01/03 00:55:01;;;;;;;3.95;3.10;;;;;;;1.59;100.00;97120.69;5173535;27;20052;-61
2022/01/03 00:57:42;;;;;;;4.53;3.60;;;;;;;1.59;100.00;97119.94;5173152;27;20046;-61
2022/01/03 01:00:11;;;;;;;5.32;3.20;;;;;;;1.58;100.00;97119.16;5173829;27;20095;-61
2022/01/03 01:02:43;;;;;;;4.47;3.47;;;;;;;1.57;100.00;97112.19;5173493;27;20552;-61
2022/01/03 01:05:09;;;;;;;4.47;3.90;;;;;;;1.58;100.00;97111.03;5173490;27;20078;-61
2022/01/03 01:07:39;;;;;;;4.05;3.63;;;;;;;1.63;100.00;97099.97;5173341;27;20428;-62
2022/01/03 01:10:06;;;;;;;6.63;4.00;;;;;;;1.62;100.00;97105.72;5173449;27;20109;-62
2022/01/03 01:12:33;;;;;;;5.95;4.50;;;;;;;1.62;100.00;97097.59;5173652;27;20405;-62
2022/01/03 01:15:00;;;;;;;4.32;3.63;;;;;;;1.60;100.00;97087.19;5173475;27;20113;-62
2022/01/03 01:17:27;;;;;;;6.75;3.70;;;;;;;1.61;100.00;97082.56;5173515;27;20052;-62
2022/01/03 01:19:54;;;;;;;4.63;3.88;;;;;;;1.62;100.00;97081.41;5173404;27;20469;-64
2022/01/03 01:22:20;;;;;;;8.80;4.38;;;;;;;1.60;100.00;97070.16;5173630;27;20049;-64
2022/01/03 01:24:57;;;;;;;4.78;3.63;;;;;;;1.64;100.00;97069.09;5173208;27;20102;-63
2022/01/03 01:30:11;;;;;;;5.07;4.57;;;;;;;1.59;100.00;97058.59;5173154;27;20057;-63
2022/01/03 01:32:42;;;;;;;6.32;4.70;;;;;;;1.58;100.00;97061.66;5173204;27;20046;-68
2022/01/03 01:35:09;;;;;;;15.43;8.60;;;;;;;1.64;100.00;97052.13;5173344;27;20046;-64
2022/01/03 01:37:38;;;;;;;14.30;8.10;;;;;;;1.71;100.00;97046.84;5173011;27;20081;-63
2022/01/03 01:40:05;;;;;;;11.30;6.95;;;;;;;1.72;100.00;97043.00;5173260;27;20146;-64
2022/01/03 01:42:33;;;;;;;10.73;7.00;;;;;;;1.68;100.00;97052.19;5172984;27;20170;-65
2022/01/03 01:45:02;;;;;;;9.48;6.30;;;;;;;1.68;100.00;97036.75;5173392;27;20050;-62
2022/01/03 01:47:28;;;;;;;11.60;6.78;;;;;;;1.68;100.00;97030.59;5172666;27;20042;-63
2022/01/03 01:49:57;;;;;;;11.52;7.15;;;;;;;1.67;100.00;97023.59;5173180;27;20072;-63
2022/01/03 01:52:25;;;;;;;10.13;6.15;;;;;;;1.67;100.00;97019.00;5172644;27;20042;-63
2022/01/03 01:54:58;;;;;;;12.35;6.50;;;;;;;1.71;100.00;97019.06;5172913;27;20057;-62
2022/01/03 01:57:39;;;;;;;15.07;8.80;;;;;;;1.72;100.00;97017.91;5172371;27;20042;-62
2022/01/03 02:00:09;;;;;;;21.40;11.75;;;;;;;1.66;100.00;97014.72;5172949;27;20046;-62
2022/01/03 02:02:38;;;;;;;11.32;6.10;;;;;;;1.64;100.00;97006.22;5172859;27;20088;-60
2022/01/03 02:05:18;;;;;;;15.77;8.98;;;;;;;1.64;100.00;96995.41;5172551;27;20046;-60
2022/01/03 02:07:58;;;;;;;21.92;8.35;;;;;;;1.68;100.00;96990.06;5171848;27;20446;-60
2022/01/03 02:10:31;;;;;;;12.48;7.57;;;;;;;1.72;100.00;96988.97;5172554;27;20084;-61
2022/01/03 02:12:58;;;;;;;16.33;8.75;;;;;;;1.71;100.00;96986.66;5172347;27;20046;-59
2022/01/03 02:15:24;;;;;;;15.52;8.75;;;;;;;1.69;100.00;96978.88;5172447;27;20046;-60
2022/01/03 02:17:50;;;;;;;17.15;9.20;;;;;;;1.63;100.00;96973.03;5172449;27;20531;-61
2022/01/03 02:20:21;;;;;;;19.40;10.13;;;;;;;1.70;100.00;96958.88;5172371;27;20054;-61
2022/01/03 02:22:48;;;;;;;15.05;8.45;;;;;;;1.66;100.00;96952.59;5172263;27;20054;-63
2022/01/03 02:25:16;;;;;;;10.73;6.85;;;;;;;1.71;100.00;96943.44;5172455;27;20046;-64
2022/01/03 02:27:43;;;;;;;13.48;7.63;;;;;;;1.75;100.00;96939.63;5172279;27;20113;-65
2022/01/03 02:30:12;;;;;;;14.55;8.30;;;;;;;1.75;100.00;96933.47;5172351;27;20046;-67
2022/01/03 02:32:39;;;;;;;13.25;7.90;;;;;;;1.77;100.00;96937.38;5172171;27;20137;-69
2022/01/03 02:35:07;;;;;;;16.42;8.98;;;;;;;1.73;100.00;96938.44;5172157;27;20053;-69
2022/01/03 02:37:34;;;;;;;16.27;8.98;;;;;;;1.70;100.00;96934.56;5172031;27;20053;-67
2022/01/03 02:40:01;;;;;;;15.02;8.77;;;;;;;1.65;100.00;96930.22;5172041;27;20050;-68
2022/01/03 02:42:28;;;;;;;15.32;9.45;;;;;;;1.66;100.00;96917.47;5172308;27;20189;-68
2022/01/03 02:45:02;;;;;;;15.13;8.52;;;;;;;1.69;100.00;96914.06;5172090;27;20054;-68
2022/01/03 02:47:28;;;;;;;12.30;6.28;;;;;;;1.68;100.00;96907.13;5172295;27;20046;-67
2022/01/03 02:49:54;;;;;;;13.73;7.90;;;;;;;1.72;100.00;96899.84;5171858;27;20050;-67
2022/01/03 02:52:21;;;;;;;14.55;8.60;;;;;;;1.68;100.00;96906.34;5172192;27;20054;-67
2022/01/03 02:54:49;;;;;;;10.43;6.65;;;;;;;1.62;100.00;96913.94;5172021;27;20046;-67
2022/01/03 02:57:15;;;;;;;14.40;8.02;;;;;;;1.68;100.00;96895.53;5171481;27;20140;-66
2022/01/03 02:59:41;;;;;;;12.02;7.70;;;;;;;1.73;100.00;96892.50;5171931;27;20046;-67
2022/01/03 03:02:07;;;;;;;13.25;7.75;;;;;;;1.76;100.00;96889.09;5171900;27;20054;-69
2022/01/03 03:04:52;;;;;;;11.98;8.32;;;;;;;1.68;100.00;96873.94;5171525;27;20050;-70
2022/01/03 03:07:18;;;;;;;12.13;7.22;;;;;;;1.64;100.00;96873.88;5171965;27;20082;-69
2022/01/03 03:09:45;;;;;;;14.02;8.40;;;;;;;1.63;100.00;96862.28;5171845;27;20142;-67
2022/01/03 03:12:11;;;;;;;17.98;9.35;;;;;;;1.61;100.00;96850.28;5171664;27;20058;-60
2022/01/03 03:14:38;;;;;;;21.17;10.43;;;;;;;1.65;100.00;96845.72;5171975;27;20049;-59
2022/01/03 03:17:05;;;;;;;23.77;14.38;;;;;;;1.70;100.00;96821.09;5171616;27;20087;-60
2022/01/03 03:19:31;;;;;;;40.10;15.20;;;;;;;1.73;100.00;96809.56;5175150;27;20528;-59
2022/01/03 03:21:57;;;;;;;25.15;12.00;;;;;;;1.73;100.00;96795.28;5175326;27;20141;-60
2022/01/03 03:24:24;;;;;;;27.45;12.32;;;;;;;1.75;100.00;96782.19;5175410;27;20042;-60
2022/01/03 03:26:50;;;;;;;31.70;13.73;;;;;;;1.77;100.00;96782.63;5175224;27;20508;-60
2022/01/03 03:29:17;;;;;;;21.58;12.38;;;;;;;1.85;100.00;96779.63;5175049;27;20091;-60
2022/01/03 03:31:43;;;;;;;16.90;8.45;;;;;;;1.80;100.00;96773.75;5174903;27;20050;-59
2022/01/03 03:34:09;;;;;;;15.48;8.75;;;;;;;1.82;100.00;96766.06;5175052;27;20054;-59
2022/01/03 03:36:36;;;;;;;16.58;9.60;;;;;;;1.87;100.00;96763.84;5175182;27;20054;-59
2022/01/03 03:39:02;;;;;;;14.68;8.35;;;;;;;1.86;100.00;96762.25;5174906;27;20461;-59
2022/01/03 03:41:28;;;;;;;16.05;8.32;;;;;;;1.90;100.00;96762.34;5175507;27;20053;-59
2022/01/03 03:43:54;;;;;;;14.90;8.40;;;;;;;1.88;100.00;96756.50;5174778;27;20058;-59
2022/01/03 03:46:22;;;;;;;16.23;7.95;;;;;;;1.85;100.00;96762.66;5175432;27;20137;-59
2022/01/03 03:48:48;;;;;;;30.20;12.98;;;;;;;1.91;100.00;96749.59;5175067;27;20042;-59
2022/01/03 03:51:14;;;;;;;32.85;13.32;;;;;;;1.95;100.00;96743.09;5175186;27;20062;-59
2022/01/03 03:53:41;;;;;;;38.70;14.23;;;;;;;2.02;100.00;96735.06;5175015;27;20121;-59
2022/01/03 03:56:07;;;;;;;30.75;12.05;;;;;;;2.00;100.00;96736.56;5174867;27;20050;-59
2022/01/03 03:58:33;;;;;;;26.23;11.60;;;;;;;1.99;100.00;96740.44;5173961;27;20053;-58
2022/01/03 04:00:59;;;;;;;19.48;9.40;;;;;;;2.00;100.00;96741.97;5174544;27;20106;-59
2022/01/03 04:03:26;;;;;;;20.77;10.52;;;;;;;2.00;100.00;96747.38;5174682;27;20054;-59
2022/01/03 04:05:53;;;;;;;22.98;10.70;;;;;;;2.04;100.00;96751.69;5174419;27;20054;-58
2022/01/03 04:08:19;;;;;;;27.67;12.68;;;;;;;2.09;100.00;96731.66;5174649;27;20102;-59
2022/01/03 04:10:45;;;;;;;29.90;10.95;;;;;;;2.09;100.00;96735.16;5174219;27;20050;-59
2022/01/03 04:13:11;;;;;;;31.23;11.90;;;;;;;2.05;100.00;96749.78;5174550;27;20054;-60
2022/01/03 04:15:38;;;;;;;25.15;10.95;;;;;;;2.05;100.00;96755.94;5174366;27;20141;-61
2022/01/03 04:18:04;;;;;;;27.77;10.90;;;;;;;2.07;100.00;96752.91;5174616;27;20138;-63
2022/01/03 04:20:31;;;;;;;24.67;10.73;;;;;;;2.15;100.00;96757.22;5174219;27;20047;-66
2022/01/03 04:22:57;;;;;;;21.67;8.60;;;;;;;2.19;100.00;96749.16;5174347;27;20109;-69
2022/01/03 04:25:23;;;;;;;19.38;8.98;;;;;;;2.19;100.00;96749.16;5174157;27;20045;-70
2022/01/03 04:27:49;;;;;;;18.45;8.50;;;;;;;2.23;100.00;96737.25;5174539;27;20053;-69
2022/01/03 04:30:16;;;;;;;13.57;8.68;;;;;;;2.30;100.00;96734.63;5173204;27;20052;-66
2022/01/03 04:32:42;;;;;;;19.70;9.23;;;;;;;2.36;100.00;96727.72;5174166;27;20394;-65
2022/01/03 04:35:09;;;;;;;19.60;9.80;;;;;;;2.40;100.00;96716.97;5174170;27;20057;-65
2022/01/03 04:37:36;;;;;;;16.00;8.25;;;;;;;2.36;100.00;96727.72;5173973;27;20050;-64
2022/01/03 04:40:02;;;;;;;21.45;9.13;;;;;;;2.40;100.00;96719.69;5174003;27;20050;-64
2022/01/03 04:42:29;;;;;;;19.55;9.52;;;;;;;2.38;100.00;96723.88;5173804;27;20052;-64
2022/01/03 04:44:56;;;;;;;17.17;8.70;;;;;;;2.42;100.00;96722.78;5174035;27;20050;-64
2022/01/03 04:47:22;;;;;;;22.13;9.48;;;;;;;2.40;100.00;96725.09;5173900;27;20530;-63
2022/01/03 04:49:49;;;;;;;16.35;9.18;;;;;;;2.42;100.00;96730.88;5173758;27;20053;-63
2022/01/03 04:52:15;;;;;;;29.30;12.07;;;;;;;2.35;100.00;96733.50;5173705;27;20137;-63
2022/01/03 04:54:42;;;;;;;54.00;20.95;;;;;;;2.30;100.00;96736.53;5173567;27;20046;-63
2022/01/03 04:57:08;;;;;;;39.78;13.25;;;;;;;2.30;100.00;96729.22;5173627;27;20436;-63
2022/01/03 04:59:35;;;;;;;519.75;152.35;;;;;;;2.27;100.00;96721.84;5173338;27;20062;-63
2022/01/03 05:02:03;;;;;;;542.83;165.93;;;;;;;2.30;100.00;96725.72;5173557;27;20046;-63
2022/01/03 05:04:30;;;;;;;298.52;78.25;;;;;;;2.42;100.00;96711.19;5173323;27;20046;-63
2022/01/03 05:06:56;;;;;;;244.68;54.88;;;;;;;2.47;100.00;96700.03;5173792;27;20394;-63
2022/01/03 05:09:22;;;;;;;100.00;29.50;;;;;;;2.52;100.00;96702.38;5173286;27;20046;-63
2022/01/03 05:11:49;;;;;;;42.13;14.73;;;;;;;2.61;100.00;96696.69;5170099;27;20405;-63
2022/01/03 05:14:15;;;;;;;71.63;17.92;;;;;;;2.66;100.00;96699.03;5152889;27;20049;-63
2022/01/03 05:16:42;;;;;;;69.18;19.00;;;;;;;2.67;100.00;96693.28;5158005;27;20050;-63
2022/01/03 05:19:08;;;;;;;73.40;20.35;;;;;;;2.74;100.00;96681.75;5156004;27;20046;-63
2022/01/03 05:21:34;;;;;;;55.75;16.63;;;;;;;2.97;100.00;96682.31;5167638;27;20534;-64
2022/01/03 05:24:00;;;;;;;85.75;22.85;;;;;;;3.09;100.00;96664.22;5154871;27;20529;-60
2022/01/03 05:26:26;;;;;;;62.03;18.92;;;;;;;3.25;100.00;96648.47;5160646;27;20050;-59
2022/01/03 05:28:53;;;;;;;74.97;19.77;;;;;;;3.38;100.00;96646.22;5173418;27;20046;-61
2022/01/03 05:31:20;;;;;;;55.60;18.27;;;;;;;3.48;100.00;96637.38;5173089;27;20127;-64
2022/01/03 05:33:46;;;;;;;26.77;11.45;;;;;;;3.65;100.00;96633.94;5172650;27;20075;-64
2022/01/03 05:36:12;;;;;;;17.50;11.40;;;;;;;3.72;100.00;96623.13;5157078;27;20070;-63
2022/01/03 05:38:38;;;;;;;22.55;10.48;;;;;;;3.89;100.00;96615.47;5152036;27;20533;-63
2022/01/03 05:41:05;;;;;;;24.50;10.02;;;;;;;3.97;100.00;96606.97;5152115;27;20057;-63
2022/01/03 05:43:31;;;;;;;14.25;8.55;;;;;;;4.26;100.00;96604.31;5155615;27;20056;-63
2022/01/03 05:45:58;;;;;;;19.08;11.00;;;;;;;4.36;100.00;96608.19;5172727;27;20047;-63
2022/01/03 05:48:24;;;;;;;15.60;8.77;;;;;;;4.33;100.00;96611.66;5172631;27;20054;-63
2022/01/03 05:50:50;;;;;;;19.80;9.30;;;;;;;4.32;100.00;96612.84;5172796;27;20046;-63
2022/01/03 05:53:17;;;;;;;17.60;8.85;;;;;;;4.34;100.00;96613.25;5169898;27;20493;-63
2022/01/03 05:55:44;;;;;;;18.08;10.57;;;;;;;4.33;100.00;96626.03;5151917;27;20544;-63
2022/01/03 05:58:10;;;;;;;16.80;9.18;;;;;;;4.41;100.00;96624.09;5163867;27;20050;-63
2022/01/03 06:00:37;;;;;;;14.25;9.25;;;;;;;4.52;100.00;96622.16;5151593;27;20416;-61
2022/01/03 06:03:03;;;;;;;20.40;9.30;;;;;;;4.61;100.00;96614.41;5157581;27;20050;-61
2022/01/03 06:05:42;;;;;;;14.73;8.70;;;;;;;4.65;100.00;96617.91;5151253;27;20056;-62
2022/01/03 06:08:09;;;;;;;11.15;8.32;;;;;;;4.65;100.00;96620.63;5151609;27;20421;-62
2022/01/03 06:10:39;;;;;;;15.60;9.43;;;;;;;4.72;100.00;96603.56;5151368;27;20046;-62
2022/01/03 06:13:06;;;;;;;14.63;8.95;;;;;;;4.74;100.00;96605.91;5151318;27;20155;-62
2022/01/03 06:15:33;;;;;;;15.68;8.40;;;;;;;4.75;100.00;96602.78;5151188;27;20046;-62
2022/01/03 06:17:59;;;;;;;28.20;9.35;;;;;;;4.83;100.00;96603.53;5168583;27;20043;-55
2022/01/03 06:20:26;;;;;;;13.15;8.27;;;;;;;4.89;100.00;96607.41;5172553;27;20103;-61
2022/01/03 06:22:52;;;;;;;15.25;8.40;;;;;;;4.98;100.00;96607.81;5172426;27;20161;-52
2022/01/03 06:25:19;;;;;;;24.50;9.00;;;;;;;5.01;100.00;96604.31;5171874;27;20054;-52
2022/01/03 06:27:45;;;;;;;13.82;8.13;;;;;;;5.01;100.00;96604.31;5151428;27;20069;-60
2022/01/03 06:30:12;;;;;;;14.45;8.02;;;;;;;5.06;100.00;96609.31;5151422;27;20050;-60
2022/01/03 06:32:38;;;;;;;15.43;8.57;;;;;;;5.10;100.00;96601.22;5151529;27;20505;-59
2022/01/03 06:35:05;;;;;;;14.85;8.65;;;;;;;5.14;100.00;96597.31;5151569;27;20054;-59
2022/01/03 06:37:32;;;;;;;12.75;8.75;;;;;;;5.16;100.00;96596.91;5169883;27;20048;-59
2022/01/03 06:39:58;;;;;;;12.52;8.73;;;;;;;5.22;100.00;96595.34;5172420;27;20050;-59
2022/01/03 06:42:24;;;;;;;12.82;8.13;;;;;;;5.27;100.00;96597.66;5171913;27;20090;-58
2022/01/03 06:44:51;;;;;;;13.88;8.25;;;;;;;5.38;100.00;96592.19;5171195;27;20047;-57
2022/01/03 06:47:17;;;;;;;11.20;7.60;;;;;;;5.41;100.00;96586.75;5151061;27;20056;-59
2022/01/03 06:49:44;;;;;;;11.80;7.35;;;;;;;5.45;100.00;96591.41;5151017;27;20141;-61
2022/01/03 06:52:10;;;;;;;19.88;9.52;;;;;;;5.54;100.00;96595.25;5152664;27;20051;-61
2022/01/03 06:54:37;;;;;;;10.68;7.13;;;;;;;5.58;100.00;96585.13;5175528;27;20050;-60
2022/01/03 06:57:04;;;;;;;10.52;6.78;;;;;;;5.61;100.00;96583.56;5175710;27;20457;-59
2022/01/03 06:59:30;;;;;;;9.15;5.85;;;;;;;5.65;100.00;96582.38;5175514;27;20046;-60
2022/01/03 07:01:56;;;;;;;31.10;10.23;;;;;;;5.60;100.00;96592.91;5175573;27;20050;-60
2022/01/03 07:04:22;;;;;;;17.38;7.18;;;;;;;5.68;100.00;96591.69;5155089;27;20047;-61
2022/01/03 07:06:49;;;;;;;8.68;5.72;;;;;;;5.78;100.00;96592.81;5154546;27;20122;-62
2022/01/03 07:09:15;;;;;;;10.68;6.22;;;;;;;5.85;100.00;96598.22;5154959;27;20489;-64
2022/01/03 07:11:42;;;;;;;16.90;6.70;;;;;;;5.85;100.00;96593.56;5160977;27;20046;-61
2022/01/03 07:19:34;;;;;;;5.72;3.50;;;;;;;5.84;100.00;96604.84;5171202;27;20256;-62
2022/01/03 07:22:04;;;;;;;7.43;4.82;;;;;;;5.84;100.00;96602.88;5175444;27;20046;-59
2022/01/03 07:24:30;;;;;;;7.65;4.47;;;;;;;5.86;100.00;96610.63;5154552;27;20466;-60
2022/01/03 07:27:00;;;;;;;22.77;10.30;;;;;;;5.85;100.00;96609.88;5154358;27;20046;-60
2022/01/03 07:29:26;;;;;;;8.27;4.93;;;;;;;5.87;100.00;96614.91;5154495;27;20129;-61
2022/01/03 07:31:52;;;;;;;6.10;3.60;;;;;;;5.88;100.00;96611.78;5154129;27;20191;-55
2022/01/03 07:34:19;;;;;;;5.55;2.97;;;;;;;5.82;100.00;96618.03;5173592;27;20141;-60
2022/01/03 07:36:45;;;;;;;6.53;3.33;;;;;;;5.88;100.00;96622.66;5175307;27;20084;-60
2022/01/03 07:39:11;;;;;;;6.35;2.83;;;;;;;5.87;100.00;96623.84;5175010;27;20423;-60
2022/01/03 07:41:37;;;;;;;6.88;3.63;;;;;;;5.83;100.00;96639.41;5175259;27;20054;-61
2022/01/03 07:44:05;;;;;;;5.55;3.40;;;;;;;5.83;100.00;96641.31;5174643;27;20043;-61
2022/01/03 07:46:31;;;;;;;4.40;2.72;;;;;;;5.86;100.00;96638.63;5175160;27;20423;-60
2022/01/03 07:48:57;;;;;;;8.52;2.80;;;;;;;5.83;100.00;96649.50;5175223;27;20078;-60
2022/01/03 07:51:24;;;;;;;2.25;1.70;;;;;;;5.84;100.00;96653.78;5173278;27;20046;-61
2022/01/03 07:53:50;;;;;;;3.65;2.28;;;;;;;5.81;100.00;96663.50;5175243;27;20050;-59
2022/01/03 07:56:18;;;;;;;3.28;2.17;;;;;;;5.81;100.00;96670.88;5174759;27;20046;-60
2022/01/03 07:58:45;;;;;;;2.95;2.10;;;;;;;5.68;100.00;96686.84;5174483;27;20165;-60
2022/01/03 08:01:12;;;;;;;2.65;1.70;;;;;;;5.62;100.00;96686.44;5158550;27;20078;-60
2022/01/03 08:03:39;;;;;;;2.22;1.73;;;;;;;5.46;100.00;96698.91;5153536;27;20061;-61
2022/01/03 08:06:07;;;;;;;3.78;2.00;;;;;;;5.38;100.00;96692.72;5152957;27;20046;-62
2022/01/03 08:08:34;;;;;;;4.97;1.70;;;;;;;5.45;100.00;96706.28;5153805;27;20090;-66
2022/01/03 08:11:00;;;;;;;2.55;1.60;;;;;;;5.25;100.00;96716.78;5167944;27;20054;-65
2022/01/03 08:13:26;;;;;;;2.08;1.70;;;;;;;5.12;100.00;96721.84;5174671;27;20046;-65
2022/01/03 08:15:53;;;;;;;2.75;1.63;;;;;;;5.07;100.00;96729.63;5174374;27;20050;-65
2022/01/03 08:18:20;;;;;;;2.80;1.77;;;;;;;5.02;100.00;96732.69;5174037;27;20465;-65
2022/01/03 08:20:46;;;;;;;3.45;1.98;;;;;;;4.95;100.00;96730.75;5172995;27;20046;-62
2022/01/03 08:23:12;;;;;;;3.80;2.10;;;;;;;4.94;100.00;96726.50;5174247;27;20489;-63
2022/01/03 08:25:39;;;;;;;3.97;1.73;;;;;;;4.94;100.00;96721.06;5174391;27;20050;-63
2022/01/03 08:28:05;;;;;;;2.13;1.83;;;;;;;4.99;100.00;96720.66;5170697;27;20046;-62
2022/01/03 08:30:32;;;;;;;2.00;1.80;;;;;;;4.98;100.00;96727.28;5174034;27;20466;-61
2022/01/03 08:32:58;;;;;;;3.45;2.22;;;;;;;4.97;100.00;96719.53;5174136;27;20452;-61
2022/01/03 08:35:25;;;;;;;2.70;2.10;;;;;;;5.07;100.00;96729.63;5174124;27;20054;-60
2022/01/03 08:37:52;;;;;;;5.80;2.30;;;;;;;5.02;100.00;96730.75;5170523;27;20042;-60
2022/01/03 08:40:19;;;;;;;6.50;2.50;;;;;;;5.04;100.00;96733.09;5152855;27;20051;-60
2022/01/03 08:42:45;;;;;;;4.47;2.60;;;;;;;4.94;100.00;96742.78;5162767;27;20057;-61
2022/01/03 08:45:12;;;;;;;3.80;2.25;;;;;;;4.82;100.00;96751.28;5168235;27;20078;-61
2022/01/03 08:47:39;;;;;;;4.78;2.60;;;;;;;4.81;100.00;96752.47;5152687;27;20050;-60
2022/01/03 08:50:07;;;;;;;2.75;2.17;;;;;;;4.83;100.00;96769.13;5152793;27;20054;-63
2022/01/03 08:52:34;;;;;;;5.57;2.58;;;;;;;4.98;100.00;96762.56;5163442;27;20046;-61
2022/01/03 08:55:00;;;;;;;5.00;3.33;;;;;;;4.89;100.00;96781.16;5167938;27;20053;-61
2022/01/03 08:57:26;;;;;;;3.50;2.47;;;;;;;4.81;100.00;96785.81;5152835;27;20051;-60
2022/01/03 08:59:52;;;;;;;3.65;2.70;;;;;;;4.66;100.00;96795.06;5166564;27;20042;-60
2022/01/03 09:02:19;;;;;;;6.43;2.55;;;;;;;4.60;100.00;96788.47;5154184;27;20050;-59
2022/01/03 09:04:46;;;;;;;3.08;2.40;;;;;;;4.44;100.00;96786.88;5153676;27;20085;-62
2022/01/03 09:07:13;;;;;;;3.75;2.55;;;;;;;4.42;100.00;96791.13;5172561;27;20046;-63
2022/01/03 09:09:40;;;;;;;4.55;2.63;;;;;;;4.45;100.00;96788.41;5173849;27;20062;-59
2022/01/03 09:12:08;;;;;;;6.20;2.92;;;;;;;4.44;100.00;96791.53;5152442;27;20042;-60
2022/01/03 09:14:35;;;;;;;4.80;2.40;;;;;;;4.43;100.00;96796.19;5152691;27;20050;-63
2022/01/03 09:17:02;;;;;;;5.30;2.67;;;;;;;4.34;100.00;96803.88;5152449;27;20179;-65
2022/01/03 09:19:28;;;;;;;6.53;2.58;;;;;;;4.32;100.00;96806.19;5152482;27;20047;-65
2022/01/03 09:22:03;;;;;;;3.15;2.70;;;;;;;4.41;100.00;96811.28;5154614;27;20497;-62
2022/01/03 09:24:42;;;;;;;3.35;2.60;;;;;;;4.42;100.00;96810.09;5152604;27;20053;-62
2022/01/03 09:29:58;;;;;;;4.32;2.75;;;;;;;4.36;100.00;96817.06;5152457;27;20457;-67
2022/01/03 09:32:24;;;;;;;4.43;2.67;;;;;;;4.33;100.00;96828.66;5152420;27;20043;-68
2022/01/03 09:34:50;;;;;;;3.13;2.58;;;;;;;4.26;100.00;96829.41;5151980;27;20049;-63
2022/01/03 09:37:20;;;;;;;3.47;2.88;;;;;;;4.34;100.00;96824.81;5173076;27;20042;-64
2022/01/03 09:39:47;;;;;;;2.55;2.00;;;;;;;4.37;100.00;96832.19;5168118;27;20078;-65
2022/01/03 09:42:20;;;;;;;4.15;2.17;;;;;;;4.43;100.00;96831.44;5152082;27;20050;-65
2022/01/03 09:44:49;;;;;;;2.38;2.10;;;;;;;4.52;100.00;96835.72;5151886;27;20053;-64
2022/01/03 09:47:17;;;;;;;2.60;1.90;;;;;;;4.65;100.00;96842.38;5153287;27;20078;-64
2022/01/03 09:49:45;;;;;;;3.33;2.15;;;;;;;4.74;100.00;96853.66;5151322;27;20050;-64
2022/01/03 09:52:12;;;;;;;2.30;1.63;;;;;;;4.64;100.00;96866.03;5151632;27;20121;-64
2022/01/03 09:54:39;;;;;;;2.58;2.22;;;;;;;4.64;100.00;96892.38;5151590;27;20137;-64
2022/01/03 09:57:06;;;;;;;2.42;1.90;;;;;;;4.61;100.00;96893.16;5168043;27;20046;-64
2022/01/03 09:59:33;;;;;;;2.50;1.90;;;;;;;4.64;100.00;96897.81;5172147;27;20050;-65
2022/01/03 10:02:00;;;;;;;1.85;1.52;;;;;;;4.57;100.00;96909.41;5163551;27;20047;-65
2022/01/03 10:04:27;;;;;;;3.60;1.65;;;;;;;4.49;100.00;96916.72;5165377;27;20505;-65
2022/01/03 10:06:53;;;;;;;4.57;2.15;;;;;;;4.49;100.00;96932.22;5151293;27;20088;-65
2022/01/03 10:09:21;;;;;;;3.08;2.15;;;;;;;4.38;100.00;96948.44;5151521;27;20047;-65
2022/01/03 10:11:47;;;;;;;1.50;1.40;;;;;;;4.45;100.00;96953.91;5151494;27;20437;-65
2022/01/03 10:14:15;;;;;;;2.47;1.70;;;;;;;4.49;100.00;96951.22;5151349;27;20054;-65
2022/01/03 10:16:44;;;;;;;1.75;1.65;;;;;;;4.40;100.00;96967.06;5165212;27;20062;-65
2022/01/03 10:19:11;;;;;;;3.15;1.90;;;;;;;4.29;100.00;96972.41;5172028;27;20053;-64
2022/01/03 10:21:40;;;;;;;2.67;1.85;;;;;;;4.23;100.00;96979.31;5172143;27;20054;-65
2022/01/03 10:24:07;;;;;;;2.10;1.75;;;;;;;4.29;100.00;96980.53;5172121;27;20056;-64
2022/01/03 10:26:34;;;;;;;2.25;1.80;;;;;;;4.18;100.00;96983.19;5172079;27;20042;-64
2022/01/03 10:29:12;;;;;;;1.95;1.40;;;;;;;4.07;100.00;96987.75;5152654;27;20524;-65
2022/01/03 10:31:39;;;;;;;1.98;1.33;;;;;;;3.96;100.00;96984.16;5151008;27;20047;-65
2022/01/03 10:34:08;;;;;;;1.50;1.40;;;;;;;3.93;100.00;96976.75;5151131;27;20054;-65
2022/01/03 10:36:39;;;;;;;2.47;1.70;;;;;;;3.98;100.00;96976.44;5151138;27;20075;-65
2022/01/03 10:39:12;;;;;;;6.10;1.50;;;;;;;4.08;100.00;96969.53;5151153;27;20098;-65
2022/01/03 10:41:39;;;;;;;1.17;1.05;;;;;;;4.07;100.00;96974.19;5161479;27;20046;-65
2022/01/03 10:44:05;;;;;;;1.98;1.25;;;;;;;3.94;100.00;96978.34;5171900;27;20089;-65
2022/01/03 10:46:33;;;;;;;4.32;1.58;;;;;;;3.99;100.00;96980.69;5169927;27;20056;-65
2022/01/03 10:49:08;;;;;;;2.08;1.17;;;;;;;3.98;100.00;96990.75;5158090;27;20050;-65
2022/01/03 10:51:35;;;;;;;2.22;1.42;;;;;;;3.99;100.00;96992.31;5164756;27;20089;-66
2022/01/03 10:54:02;;;;;;;2.00;1.25;;;;;;;3.99;100.00;97003.16;5159511;27;20458;-65
2022/01/03 10:56:35;;;;;;;1.85;1.20;;;;;;;4.05;100.00;97011.72;5148984;27;20047;-65
2022/01/03 10:59:18;;;;;;;2.60;1.30;;;;;;;4.00;100.00;97017.50;5151233;27;20058;-65
2022/01/03 11:01:46;;;;;;;2.47;1.15;;;;;;;3.96;100.00;97028.28;5150716;27;20054;-65
2022/01/03 11:04:25;;;;;;;2.08;1.20;;;;;;;3.93;100.00;97037.19;5166218;27;20380;-66
2022/01/03 11:10:43;;;;;;;1.55;1.40;;;;;;;3.91;100.00;97047.63;5171763;27;20052;-66
2022/01/03 11:13:12;;;;;;;1.35;1.25;;;;;;;3.99;100.00;97064.75;5171195;27;20189;-66
2022/01/03 11:15:41;;;;;;;1.40;1.30;;;;;;;3.93;100.00;97058.09;5171261;27;20404;-60
2022/01/03 11:18:12;;;;;;;1.75;1.40;;;;;;;4.00;100.00;97058.19;5152764;27;20047;-58
2022/01/03 11:20:40;;;;;;;1.70;1.25;;;;;;;4.04;100.00;97069.06;5150448;27;20108;-58
2022/01/03 11:23:06;;;;;;;1.77;1.48;;;;;;;3.99;100.00;97081.00;5150502;27;20051;-59
2022/01/03 11:25:34;;;;;;;2.60;1.70;;;;;;;3.98;100.00;97069.38;5150843;27;20068;-59
2022/01/03 11:28:01;;;;;;;3.70;1.60;;;;;;;3.93;100.00;97098.75;5165129;27;20041;-61
2022/01/03 11:30:28;;;;;;;1.40;1.30;;;;;;;3.80;100.00;97100.16;5171526;27;20484;-61
2022/01/03 11:32:56;;;;;;;2.95;1.42;;;;;;;3.75;100.00;97107.47;5171404;27;20046;-62
2022/01/03 11:35:22;;;;;;;3.25;1.95;;;;;;;3.70;100.00;97105.09;5171402;27;20102;-61
2022/01/03 11:37:50;;;;;;;3.05;1.30;;;;;;;3.59;100.00;97104.19;5171410;27;20046;-61
2022/01/03 11:40:17;;;;;;;2.13;1.63;;;;;;;3.59;100.00;97101.47;5170416;27;20047;-61
2022/01/03 11:42:45;;;;;;;2.92;1.80;;;;;;;3.53;100.00;97102.94;5153863;27;20050;-61